Time;durP1;ratioP1;P1;durP2;ratioP2;P2;SDS_P1;SDS_P2;PMS_P1;PMS_P2;Temp;Humidity;BMP_temperature;BMP_pressure;BME280_temperature;BME280_humidity;BME280_pressure;Samples;Min_cycle;Max_cycle;Signal;HPM_P1;HPM_P2
2021/10/16 00:01:20;;;;;;;1.05;0.60;;;6.10;89.20;;;;;;5041864;28;20043;-80
2021/10/16 00:03:46;;;;;;;0.70;0.55;;;6.10;89.20;;;;;;5058907;28;20093;-81
2021/10/16 00:06:12;;;;;;;0.88;0.50;;;6.10;89.20;;;;;;5073386;28;20048;-80
2021/10/16 00:08:39;;;;;;;0.82;0.60;;;6.20;89.30;;;;;;5075718;28;20040;-80
2021/10/16 00:11:05;;;;;;;0.70;0.30;;;6.00;89.30;;;;;;5075542;28;20072;-82
2021/10/16 00:13:31;;;;;;;1.10;0.77;;;6.00;89.40;;;;;;5058184;28;20039;-80
2021/10/16 00:15:58;;;;;;;1.17;0.65;;;6.00;89.40;;;;;;5074572;28;20123;-80
2021/10/16 00:18:24;;;;;;;1.83;0.90;;;6.00;89.40;;;;;;5058458;28;20044;-80
2021/10/16 00:20:49;;;;;;;1.63;0.70;;;5.90;89.30;;;;;;5093138;28;20066;-80
2021/10/16 00:23:15;;;;;;;1.00;0.50;;;6.00;89.40;;;;;;5058412;28;20040;-80
2021/10/16 00:25:41;;;;;;;1.05;0.70;;;6.00;89.50;;;;;;5058383;28;20425;-80
2021/10/16 00:28:07;;;;;;;0.60;0.50;;;6.00;89.40;;;;;;5093489;28;20032;-80
2021/10/16 00:30:33;;;;;;;0.57;0.40;;;5.90;89.90;;;;;;5058265;28;20048;-80
2021/10/16 00:32:59;;;;;;;0.80;0.55;;;5.90;89.30;;;;;;5058422;28;20058;-80
2021/10/16 00:35:24;;;;;;;0.98;0.47;;;6.00;89.40;;;;;;5092881;28;20135;-80
2021/10/16 00:37:50;;;;;;;1.25;0.47;;;5.90;89.40;;;;;;5074898;28;20043;-80
2021/10/16 00:40:16;;;;;;;0.85;0.40;;;5.90;89.40;;;;;;5074863;28;20040;-80
2021/10/16 00:42:45;;;;;;;0.88;0.40;;;5.90;89.50;;;;;;5058063;28;20043;-80
2021/10/16 00:45:11;;;;;;;0.60;0.40;;;5.90;89.50;;;;;;5092876;28;20185;-80
2021/10/16 00:47:37;;;;;;;0.40;0.40;;;6.00;89.50;;;;;;5057982;28;20119;-80
2021/10/16 00:50:03;;;;;;;1.98;0.70;;;5.90;89.40;;;;;;5074918;28;20451;-80
2021/10/16 00:52:29;;;;;;;0.75;0.50;;;6.00;89.50;;;;;;5074528;28;20126;-80
2021/10/16 00:54:55;;;;;;;0.85;0.60;;;5.90;89.50;;;;;;5057848;28;20129;-80
2021/10/16 00:57:20;;;;;;;1.10;0.60;;;5.90;89.50;;;;;;5074471;28;20068;-80
2021/10/16 00:59:46;;;;;;;0.93;0.52;;;5.90;89.50;;;;;;5074794;28;20036;-80
2021/10/16 01:02:19;;;;;;;0.85;0.60;;;5.90;89.40;;;;;;5057958;28;20043;-81
2021/10/16 01:04:46;;;;;;;1.02;0.60;;;5.80;89.40;;;;;;5074405;28;20046;-81
2021/10/16 01:07:13;;;;;;;0.60;0.50;;;5.80;89.50;;;;;;5057670;28;20046;-80
2021/10/16 01:09:43;;;;;;;1.15;0.63;;;5.80;89.60;;;;;;5057719;28;20036;-81
2021/10/16 01:12:09;;;;;;;0.35;0.30;;;5.80;89.60;;;;;;5041485;28;20068;-80
2021/10/16 01:14:41;;;;;;;0.60;0.50;;;5.80;90.10;;;;;;5074432;28;20070;-80
2021/10/16 01:17:08;;;;;;;0.73;0.40;;;5.80;89.60;;;;;;5074635;28;20048;-80
2021/10/16 01:19:36;;;;;;;0.63;0.60;;;5.70;89.60;;;;;;5057288;28;20122;-80
2021/10/16 01:22:04;;;;;;;0.90;0.57;;;5.80;89.70;;;;;;5075883;28;20071;-80
2021/10/16 01:24:30;;;;;;;0.45;0.45;;;5.80;89.70;;;;;;5076557;28;20056;-80
2021/10/16 01:26:56;;;;;;;0.70;0.40;;;5.70;89.70;;;;;;5057536;28;20478;-80
2021/10/16 01:29:25;;;;;;;0.30;0.30;;;5.70;89.80;;;;;;5092648;28;20047;-80
2021/10/16 01:31:52;;;;;;;0.40;0.35;;;5.80;89.80;;;;;;5092770;28;20100;-80
2021/10/16 01:34:19;;;;;;;0.50;0.32;;;5.80;89.80;;;;;;5061291;28;20048;-80
2021/10/16 01:36:49;;;;;;;1.25;0.57;;;5.80;89.70;;;;;;5057729;28;20048;-80
2021/10/16 01:39:15;;;;;;;0.50;0.40;;;5.80;89.70;;;;;;5057660;28;20079;-80
2021/10/16 01:41:42;;;;;;;0.80;0.50;;;5.80;89.60;;;;;;5074295;28;20085;-80
2021/10/16 01:44:09;;;;;;;0.38;0.38;;;5.80;89.60;;;;;;5057328;28;20040;-80
2021/10/16 01:46:35;;;;;;;0.75;0.52;;;5.80;89.60;;;;;;5057554;28;20040;-80
2021/10/16 01:49:15;;;;;;;0.50;0.40;;;5.90;89.60;;;;;;5040703;28;20040;-80
2021/10/16 01:51:43;;;;;;;0.75;0.40;;;5.90;89.60;;;;;;5072078;28;20040;-81
2021/10/16 01:54:10;;;;;;;0.75;0.45;;;5.90;89.60;;;;;;5073626;28;20040;-80
2021/10/16 01:56:36;;;;;;;0.30;0.25;;;5.90;89.50;;;;;;5057180;28;20052;-80
2021/10/16 01:59:19;;;;;;;0.88;0.50;;;5.90;89.50;;;;;;5073996;28;20039;-80
2021/10/16 02:01:45;;;;;;;0.65;0.50;;;5.90;89.60;;;;;;5040148;28;20131;-80
2021/10/16 02:04:12;;;;;;;0.63;0.30;;;5.90;89.50;;;;;;5056854;28;20035;-80
2021/10/16 02:06:39;;;;;;;0.95;0.50;;;5.90;89.50;;;;;;5092188;28;20126;-80
2021/10/16 02:09:05;;;;;;;0.52;0.40;;;5.90;89.50;;;;;;5056938;28;20056;-80
2021/10/16 02:11:32;;;;;;;0.47;0.40;;;5.90;89.50;;;;;;5073467;28;20122;-80
2021/10/16 02:13:58;;;;;;;0.70;0.43;;;5.90;89.60;;;;;;5056776;28;20051;-81
2021/10/16 02:16:25;;;;;;;0.93;0.60;;;5.90;89.50;;;;;;5091803;28;20043;-81
2021/10/16 02:18:50;;;;;;;2.33;0.70;;;6.00;89.60;;;;;;5073274;28;20044;-81
2021/10/16 02:21:16;;;;;;;0.30;0.30;;;6.00;89.60;;;;;;5073621;28;20043;-80
2021/10/16 02:23:42;;;;;;;0.77;0.40;;;6.00;89.50;;;;;;5040244;28;20039;-80
2021/10/16 02:26:08;;;;;;;0.45;0.45;;;6.00;89.60;;;;;;5040825;28;20036;-80
2021/10/16 02:28:34;;;;;;;0.30;0.30;;;6.10;89.60;;;;;;5074429;28;20048;-80
2021/10/16 02:31:00;;;;;;;1.13;0.57;;;6.00;89.50;;;;;;5091944;28;20036;-80
2021/10/16 02:33:25;;;;;;;0.30;0.30;;;6.10;89.60;;;;;;5073516;28;20117;-80
2021/10/16 02:35:51;;;;;;;0.40;0.40;;;6.10;89.50;;;;;;5040266;28;20140;-80
2021/10/16 02:38:17;;;;;;;1.95;0.70;;;6.00;89.50;;;;;;5073621;28;20032;-80
2021/10/16 02:40:43;;;;;;;0.43;0.40;;;6.20;89.50;;;;;;5060604;28;20044;-80
2021/10/16 02:43:09;;;;;;;0.90;0.47;;;6.20;89.50;;;;;;5044008;28;20064;-80
2021/10/16 02:45:35;;;;;;;0.47;0.40;;;6.20;89.50;;;;;;5095559;28;20063;-81
2021/10/16 02:48:01;;;;;;;0.90;0.70;;;6.30;89.50;;;;;;5076939;28;20110;-80
2021/10/16 02:50:27;;;;;;;0.63;0.50;;;6.30;89.40;;;;;;5076948;28;20067;-81
2021/10/16 02:52:52;;;;;;;0.75;0.50;;;6.40;89.40;;;;;;5077325;28;20093;-80
2021/10/16 02:55:18;;;;;;;0.65;0.32;;;6.30;89.30;;;;;;5043172;28;20477;-80
2021/10/16 02:57:44;;;;;;;0.38;0.38;;;6.40;89.40;;;;;;5095346;28;20028;-80
2021/10/16 03:00:11;;;;;;;0.60;0.52;;;6.40;89.40;;;;;;5093516;28;20169;-80
2021/10/16 03:02:37;;;;;;;1.30;0.50;;;6.50;89.40;;;;;;5095913;28;20032;-80
2021/10/16 03:05:04;;;;;;;0.35;0.35;;;6.50;89.30;;;;;;5077079;28;20040;-81
2021/10/16 03:07:30;;;;;;;1.25;0.63;;;6.50;89.30;;;;;;5060009;28;20401;-80
2021/10/16 03:09:56;;;;;;;0.60;0.40;;;6.50;89.30;;;;;;5077465;28;20047;-80
2021/10/16 03:12:22;;;;;;;0.60;0.50;;;6.60;89.50;;;;;;5094858;28;20055;-80
2021/10/16 03:14:48;;;;;;;0.60;0.47;;;6.60;89.40;;;;;;5060556;28;20044;-80
2021/10/16 03:17:14;;;;;;;0.70;0.32;;;6.70;89.40;;;;;;5095132;28;20453;-80
2021/10/16 03:19:40;;;;;;;0.85;0.50;;;6.70;89.40;;;;;;5094895;28;20032;-80
2021/10/16 03:22:08;;;;;;;1.25;0.52;;;6.70;89.40;;;;;;5060029;28;20106;-80
2021/10/16 03:24:34;;;;;;;0.60;0.50;;;6.70;89.40;;;;;;5076848;28;20040;-80
2021/10/16 03:27:00;;;;;;;0.40;0.40;;;6.70;89.40;;;;;;5043181;28;20154;-80
2021/10/16 03:29:26;;;;;;;0.55;0.40;;;6.70;89.40;;;;;;5060789;28;20036;-80
2021/10/16 03:31:52;;;;;;;1.08;0.70;;;6.80;89.40;;;;;;5077381;28;20036;-80
2021/10/16 03:34:18;;;;;;;0.38;0.38;;;6.80;89.50;;;;;;5094972;28;20040;-80
2021/10/16 03:36:44;;;;;;;0.60;0.40;;;6.80;89.50;;;;;;5094765;28;20048;-81
2021/10/16 03:39:10;;;;;;;0.35;0.30;;;6.80;89.50;;;;;;5077188;28;20397;-80
2021/10/16 03:41:35;;;;;;;0.90;0.57;;;6.90;89.60;;;;;;5059812;28;20040;-81
2021/10/16 03:44:01;;;;;;;1.42;0.60;;;6.90;89.60;;;;;;5059661;28;20044;-81
2021/10/16 03:46:27;;;;;;;0.40;0.40;;;7.00;89.60;;;;;;5077246;28;20036;-81
2021/10/16 03:48:52;;;;;;;0.55;0.50;;;6.90;89.60;;;;;;5059522;28;20051;-81
2021/10/16 03:51:18;;;;;;;0.47;0.47;;;7.00;89.60;;;;;;5060417;28;20127;-80
2021/10/16 03:53:44;;;;;;;0.60;0.50;;;7.00;89.60;;;;;;5060189;28;20051;-80
2021/10/16 03:56:10;;;;;;;0.55;0.30;;;7.00;89.60;;;;;;5059101;28;20040;-80
2021/10/16 03:58:35;;;;;;;0.47;0.45;;;7.00;89.60;;;;;;5059421;28;20043;-80
2021/10/16 04:01:03;;;;;;;0.30;0.30;;;7.10;89.70;;;;;;5042410;28;20032;-80
2021/10/16 04:03:30;;;;;;;0.88;0.50;;;7.10;89.60;;;;;;5059229;28;20040;-80
2021/10/16 04:05:56;;;;;;;0.57;0.40;;;7.10;89.70;;;;;;5092551;28;20447;-80
2021/10/16 04:08:22;;;;;;;1.10;0.52;;;7.10;89.70;;;;;;5093853;28;20123;-80
2021/10/16 04:10:49;;;;;;;0.43;0.35;;;7.10;89.70;;;;;;5095963;28;20073;-80
2021/10/16 04:13:15;;;;;;;0.30;0.30;;;7.20;89.70;;;;;;5066647;28;20052;-79
2021/10/16 04:15:41;;;;;;;0.20;0.20;;;7.20;89.80;;;;;;5078149;28;20386;-80
2021/10/16 04:18:07;;;;;;;1.42;0.43;;;7.20;89.80;;;;;;5075914;28;20040;-80
2021/10/16 04:20:33;;;;;;;0.55;0.40;;;7.30;89.80;;;;;;5093554;28;20048;-80
2021/10/16 04:22:59;;;;;;;0.70;0.50;;;7.30;89.90;;;;;;5058943;28;20393;-80
2021/10/16 04:25:25;;;;;;;0.65;0.57;;;7.30;89.90;;;;;;5075494;28;20052;-80
2021/10/16 04:27:51;;;;;;;0.63;0.43;;;7.30;89.90;;;;;;5075648;28;20036;-80
2021/10/16 04:30:17;;;;;;;0.43;0.40;;;7.30;89.90;;;;;;5075183;28;20044;-80
2021/10/16 04:32:43;;;;;;;0.50;0.50;;;7.40;89.90;;;;;;5075605;28;20035;-80
2021/10/16 04:35:10;;;;;;;1.27;0.70;;;7.40;90.00;;;;;;5075258;28;20048;-80
2021/10/16 04:37:36;;;;;;;1.38;0.77;;;7.40;89.90;;;;;;5075104;28;20048;-80
2021/10/16 04:40:10;;;;;;;0.70;0.60;;;7.40;89.90;;;;;;5075923;28;20040;-80
2021/10/16 04:42:36;;;;;;;1.45;0.47;;;7.40;90.00;;;;;;5059635;28;20085;-80
2021/10/16 04:45:02;;;;;;;0.40;0.40;;;7.50;90.00;;;;;;5058176;28;20067;-80
2021/10/16 04:47:28;;;;;;;0.60;0.52;;;7.50;90.00;;;;;;5093301;28;20040;-80
2021/10/16 04:49:54;;;;;;;0.75;0.50;;;7.50;90.00;;;;;;5057891;28;20144;-80
2021/10/16 04:52:20;;;;;;;0.45;0.40;;;7.50;90.00;;;;;;5058326;28;20087;-80
2021/10/16 04:54:46;;;;;;;0.68;0.50;;;7.50;90.00;;;;;;5074547;28;20374;-80
2021/10/16 04:57:12;;;;;;;0.65;0.45;;;7.50;90.00;;;;;;5092669;28;20047;-80
2021/10/16 04:59:38;;;;;;;1.00;0.60;;;7.50;90.00;;;;;;5058141;28;20040;-80
2021/10/16 05:02:04;;;;;;;0.40;0.40;;;7.50;90.00;;;;;;5091987;28;20117;-81
2021/10/16 05:04:31;;;;;;;0.98;0.60;;;7.60;90.00;;;;;;5074507;28;20060;-81
2021/10/16 05:06:57;;;;;;;0.70;0.50;;;7.60;90.00;;;;;;5059258;28;20032;-80
2021/10/16 05:09:23;;;;;;;1.55;0.40;;;7.60;90.00;;;;;;5058977;28;20363;-81
2021/10/16 05:11:48;;;;;;;0.60;0.40;;;7.60;90.00;;;;;;5057760;28;20093;-80
2021/10/16 05:14:14;;;;;;;0.65;0.50;;;7.70;90.10;;;;;;5058249;28;20036;-80
2021/10/16 05:16:40;;;;;;;0.63;0.40;;;7.70;90.10;;;;;;5074733;28;20046;-80
2021/10/16 05:19:05;;;;;;;0.73;0.60;;;7.70;90.10;;;;;;5041221;28;20036;-81
2021/10/16 05:21:32;;;;;;;0.93;0.45;;;7.80;90.10;;;;;;5041932;28;20036;-80
2021/10/16 05:23:57;;;;;;;0.52;0.40;;;7.80;90.10;;;;;;5074872;28;20040;-80
2021/10/16 05:26:23;;;;;;;0.40;0.40;;;7.80;90.10;;;;;;5042484;28;20078;-79
2021/10/16 05:28:49;;;;;;;0.85;0.38;;;7.80;90.10;;;;;;5058250;28;20047;-80
2021/10/16 05:31:15;;;;;;;1.20;0.60;;;7.90;90.20;;;;;;5092856;28;20549;-80
2021/10/16 05:33:41;;;;;;;0.63;0.40;;;7.80;90.10;;;;;;5058883;28;20036;-85
2021/10/16 05:36:07;;;;;;;0.57;0.38;;;7.80;90.10;;;;;;5057893;28;20052;-84
2021/10/16 05:38:33;;;;;;;0.88;0.52;;;7.90;90.10;;;;;;5057333;28;20489;-85
2021/10/16 05:40:58;;;;;;;0.38;0.38;;;7.90;90.10;;;;;;5041031;28;20043;-85
2021/10/16 05:43:24;;;;;;;0.45;0.40;;;7.90;90.20;;;;;;5057297;28;20613;-84
2021/10/16 05:45:50;;;;;;;0.85;0.43;;;7.90;90.10;;;;;;5040667;28;20071;-85
2021/10/16 05:48:15;;;;;;;0.60;0.40;;;7.80;90.10;;;;;;5038716;28;20044;-86
2021/10/16 05:50:41;;;;;;;0.55;0.45;;;7.80;90.10;;;;;;5057325;28;20047;-86
2021/10/16 05:53:07;;;;;;;1.27;0.40;;;7.90;90.20;;;;;;5057010;28;20040;-85
2021/10/16 05:55:33;;;;;;;0.40;0.32;;;8.00;90.20;;;;;;5074095;28;20040;-85
2021/10/16 05:57:58;;;;;;;0.57;0.47;;;8.00;90.20;;;;;;5092427;28;20044;-84
2021/10/16 06:00:24;;;;;;;0.30;0.30;;;8.00;90.20;;;;;;5040562;28;20425;-85
2021/10/16 06:02:51;;;;;;;1.77;0.30;;;8.00;90.20;;;;;;5057499;28;20047;-86
2021/10/16 06:05:17;;;;;;;0.68;0.43;;;8.10;90.20;;;;;;5058501;28;20036;-86
2021/10/16 06:07:43;;;;;;;0.70;0.60;;;8.00;90.20;;;;;;5074712;28;20040;-86
2021/10/16 06:10:10;;;;;;;0.73;0.50;;;8.00;90.20;;;;;;5040864;28;20485;-86
2021/10/16 06:12:38;;;;;;;1.05;0.60;;;8.00;90.20;;;;;;5040560;28;20090;-89
2021/10/16 06:15:04;;;;;;;0.50;0.40;;;8.10;90.30;;;;;;5047111;28;20116;-85
2021/10/16 06:17:30;;;;;;;0.77;0.43;;;8.10;90.20;;;;;;5053138;28;20401;-87
2021/10/16 06:19:59;;;;;;;0.70;0.47;;;8.00;90.20;;;;;;5061078;28;20036;-86
2021/10/16 06:25:17;;;;;;;0.73;0.35;;;8.10;90.30;;;;;;5066111;28;20438;-85
2021/10/16 06:27:46;;;;;;;0.43;0.43;;;8.10;90.30;;;;;;5001051;28;20066;-83
2021/10/16 06:30:12;;;;;;;1.52;0.45;;;8.10;90.30;;;;;;5000688;28;20038;-84
2021/10/16 06:32:37;;;;;;;0.52;0.50;;;8.20;90.30;;;;;;5017344;28;20057;-83
2021/10/16 06:35:05;;;;;;;0.30;0.30;;;8.20;90.30;;;;;;5000118;28;20037;-84
2021/10/16 06:37:31;;;;;;;1.02;0.40;;;8.20;90.30;;;;;;5000106;28;20499;-85
2021/10/16 06:39:57;;;;;;;0.52;0.40;;;8.10;90.30;;;;;;5016395;28;20048;-85
2021/10/16 06:42:23;;;;;;;1.23;0.50;;;8.20;90.30;;;;;;5016640;28;20041;-86
2021/10/16 06:44:48;;;;;;;1.02;0.60;;;8.20;90.30;;;;;;5016958;28;20045;-84
2021/10/16 06:47:14;;;;;;;0.90;0.45;;;8.30;90.30;;;;;;4999799;28;20045;-86
2021/10/16 06:49:40;;;;;;;0.57;0.43;;;8.30;90.30;;;;;;5016041;28;20052;-86
2021/10/16 06:52:05;;;;;;;0.90;0.50;;;8.30;90.30;;;;;;4999838;28;20147;-86
2021/10/16 06:54:31;;;;;;;0.70;0.40;;;8.30;90.30;;;;;;5016035;28;20072;-86
2021/10/16 06:56:57;;;;;;;0.45;0.45;;;8.30;90.30;;;;;;4999838;28;20046;-86
2021/10/16 06:59:22;;;;;;;0.43;0.43;;;8.20;90.30;;;;;;5048241;28;20456;-86
2021/10/16 07:01:48;;;;;;;0.90;0.50;;;8.30;90.30;;;;;;5059877;28;20470;-86
2021/10/16 07:04:14;;;;;;;1.00;0.50;;;8.40;90.40;;;;;;5059910;28;20040;-86
2021/10/16 07:06:40;;;;;;;1.10;0.32;;;8.40;90.40;;;;;;5041435;28;20043;-86
2021/10/16 07:09:06;;;;;;;0.52;0.50;;;8.40;90.40;;;;;;5076823;28;20036;-85
2021/10/16 07:11:32;;;;;;;0.63;0.40;;;8.50;90.40;;;;;;5060401;28;20043;-86
2021/10/16 07:13:58;;;;;;;0.60;0.40;;;8.40;90.30;;;;;;5043169;28;20063;-86
2021/10/16 07:16:23;;;;;;;0.85;0.50;;;8.50;90.40;;;;;;5059708;28;20055;-84
2021/10/16 07:18:49;;;;;;;0.93;0.50;;;8.50;90.30;;;;;;5076898;28;20044;-86
2021/10/16 07:21:15;;;;;;;0.68;0.30;;;8.50;90.30;;;;;;5059735;28;20072;-85
2021/10/16 07:23:41;;;;;;;0.55;0.50;;;8.60;90.30;;;;;;5076604;28;20082;-85
2021/10/16 07:26:06;;;;;;;0.57;0.50;;;8.60;90.30;;;;;;5059199;28;20096;-85
2021/10/16 07:28:32;;;;;;;0.30;0.30;;;8.60;90.30;;;;;;5060042;28;20044;-86
2021/10/16 07:30:58;;;;;;;0.65;0.32;;;8.70;90.20;;;;;;5055958;28;20036;-85
2021/10/16 07:33:24;;;;;;;0.43;0.35;;;8.80;90.30;;;;;;5060156;28;20040;-85
2021/10/16 07:35:49;;;;;;;0.80;0.40;;;8.80;90.20;;;;;;5076801;28;20465;-85
2021/10/16 07:38:15;;;;;;;0.73;0.50;;;8.90;90.20;;;;;;5081352;28;20036;-84
2021/10/16 07:40:41;;;;;;;0.30;0.20;;;8.90;90.20;;;;;;5079081;28;20048;-84
2021/10/16 07:43:08;;;;;;;1.15;0.43;;;8.90;90.20;;;;;;5059700;28;20584;-83
2021/10/16 07:45:34;;;;;;;0.55;0.50;;;9.00;90.20;;;;;;5075888;28;20040;-83
2021/10/16 07:48:00;;;;;;;0.98;0.70;;;9.00;90.20;;;;;;5059439;28;20401;-83
2021/10/16 07:50:26;;;;;;;0.68;0.50;;;9.00;90.10;;;;;;5059104;28;20405;-83
2021/10/16 07:52:51;;;;;;;0.75;0.52;;;9.10;90.10;;;;;;5059178;28;20047;-79
2021/10/16 07:55:17;;;;;;;0.38;0.38;;;9.10;90.10;;;;;;5075240;28;20080;-79
2021/10/16 07:57:43;;;;;;;1.02;0.70;;;9.20;90.10;;;;;;5054634;28;20136;-81
2021/10/16 08:00:10;;;;;;;1.23;0.45;;;9.10;90.10;;;;;;5043737;28;20051;-78
2021/10/16 08:02:35;;;;;;;0.30;0.30;;;9.20;90.10;;;;;;5093741;28;20052;-78
2021/10/16 08:05:02;;;;;;;0.45;0.40;;;9.30;90.10;;;;;;5093671;28;20093;-78
2021/10/16 08:07:29;;;;;;;2.90;0.70;;;9.30;90.10;;;;;;5058897;28;20044;-79
2021/10/16 08:09:55;;;;;;;2.17;0.70;;;9.30;90.00;;;;;;5058682;28;20070;-80
2021/10/16 08:12:21;;;;;;;1.27;0.50;;;9.40;90.10;;;;;;5057672;28;20048;-78
2021/10/16 08:14:47;;;;;;;1.58;0.68;;;9.40;90.00;;;;;;5076864;28;20119;-81
2021/10/16 08:17:13;;;;;;;0.40;0.30;;;9.50;90.10;;;;;;5075519;28;20048;-80
2021/10/16 08:19:39;;;;;;;0.93;0.70;;;9.50;90.00;;;;;;5075774;28;20036;-78
2021/10/16 08:22:04;;;;;;;0.82;0.55;;;9.50;90.00;;;;;;5105218;28;20401;-80
2021/10/16 08:24:30;;;;;;;1.08;0.75;;;9.60;90.00;;;;;;5077179;28;20071;-82
2021/10/16 08:26:56;;;;;;;0.75;0.50;;;9.60;90.20;;;;;;5075235;28;20058;-81
2021/10/16 08:29:22;;;;;;;1.48;0.80;;;9.60;90.00;;;;;;5093416;28;20138;-82
2021/10/16 08:31:48;;;;;;;0.70;0.70;;;9.60;90.00;;;;;;5059261;28;20075;-80
2021/10/16 08:34:14;;;;;;;2.47;0.70;;;9.60;90.00;;;;;;5058613;28;20047;-80
2021/10/16 08:36:40;;;;;;;1.17;0.70;;;9.70;90.00;;;;;;5074048;28;20050;-81
2021/10/16 08:39:07;;;;;;;0.95;0.40;;;9.80;89.90;;;;;;5058836;28;20451;-80
2021/10/16 08:41:34;;;;;;;0.98;0.60;;;9.90;89.90;;;;;;5075021;28;20403;-80
2021/10/16 08:44:00;;;;;;;1.17;0.40;;;9.90;89.80;;;;;;5075044;28;20043;-80
2021/10/16 08:46:27;;;;;;;1.23;0.70;;;10.00;89.70;;;;;;5092959;28;20089;-78
2021/10/16 08:49:00;;;;;;;0.60;0.50;;;10.00;89.70;;;;;;5074748;28;20047;-79
2021/10/16 08:51:25;;;;;;;1.20;0.70;;;9.90;89.50;;;;;;5056889;28;20048;-79
2021/10/16 08:53:51;;;;;;;1.33;0.73;;;10.00;89.60;;;;;;5059771;28;20043;-80
2021/10/16 08:56:20;;;;;;;0.45;0.40;;;10.00;89.60;;;;;;5041804;28;20048;-80
2021/10/16 08:58:45;;;;;;;0.98;0.50;;;10.10;89.60;;;;;;5060099;28;20509;-80
2021/10/16 09:01:11;;;;;;;0.63;0.55;;;10.10;89.60;;;;;;5094965;28;20123;-80
2021/10/16 09:03:45;;;;;;;0.98;0.40;;;10.10;89.50;;;;;;5075258;28;20043;-84
2021/10/16 09:06:23;;;;;;;1.77;0.60;;;10.20;89.40;;;;;;5077194;28;20492;-83
2021/10/16 09:08:59;;;;;;;2.28;0.73;;;10.10;89.90;;;;;;5085038;28;20044;-83
2021/10/16 09:11:30;;;;;;;1.60;0.60;;;10.20;89.30;;;;;;5089565;28;20085;-83
2021/10/16 09:13:59;;;;;;;1.70;0.45;;;10.20;89.30;;;;;;5065769;28;20035;-82
2021/10/16 09:16:29;;;;;;;0.38;0.38;;;10.30;89.30;;;;;;5081318;28;20192;-81
2021/10/16 09:18:59;;;;;;;0.45;0.40;;;10.40;89.30;;;;;;5067093;28;20031;-81
2021/10/16 09:21:29;;;;;;;1.27;0.52;;;10.40;89.10;;;;;;5098284;28;20039;-81
2021/10/16 09:24:13;;;;;;;1.23;0.63;;;10.50;89.10;;;;;;5049449;28;20036;-81
2021/10/16 09:26:42;;;;;;;1.38;0.68;;;10.60;89.00;;;;;;5067968;28;20090;-82
2021/10/16 09:29:10;;;;;;;0.80;0.50;;;10.60;89.00;;;;;;5092009;28;20048;-82
2021/10/16 09:31:39;;;;;;;1.67;0.60;;;10.70;88.90;;;;;;5066536;28;20156;-82
2021/10/16 09:34:06;;;;;;;1.65;0.50;;;10.60;88.70;;;;;;5082501;28;20043;-81
2021/10/16 09:36:34;;;;;;;0.50;0.50;;;10.80;88.80;;;;;;5078554;28;20048;-81
2021/10/16 09:39:00;;;;;;;1.42;0.65;;;10.80;88.70;;;;;;5059435;28;20044;-80
2021/10/16 09:41:29;;;;;;;1.05;0.50;;;10.80;88.60;;;;;;5099639;28;20036;-81
2021/10/16 09:43:57;;;;;;;1.27;0.60;;;11.00;88.70;;;;;;5075625;28;20044;-81
2021/10/16 09:46:23;;;;;;;2.05;0.57;;;10.80;88.60;;;;;;5074942;28;20048;-78
2021/10/16 09:48:50;;;;;;;0.63;0.32;;;10.90;88.60;;;;;;5078331;28;20097;-82
2021/10/16 09:51:19;;;;;;;1.40;0.47;;;11.00;88.50;;;;;;5077786;28;20104;-82
2021/10/16 09:53:47;;;;;;;2.25;0.65;;;11.00;88.40;;;;;;5076023;28;20040;-84
2021/10/16 09:56:13;;;;;;;0.60;0.25;;;11.10;88.40;;;;;;5061823;28;20405;-79
2021/10/16 09:58:40;;;;;;;1.70;0.52;;;11.10;88.30;;;;;;5060813;28;20389;-79
2021/10/16 10:01:09;;;;;;;1.10;0.55;;;11.20;88.30;;;;;;5061136;28;20401;-79
2021/10/16 10:03:39;;;;;;;0.95;0.55;;;11.30;88.20;;;;;;5061205;28;20121;-79
2021/10/16 10:06:05;;;;;;;1.33;0.40;;;11.30;88.10;;;;;;5079024;28;20131;-82
2021/10/16 10:08:33;;;;;;;1.80;0.40;;;11.30;88.10;;;;;;5080444;28;20047;-87
2021/10/16 10:11:01;;;;;;;0.98;0.50;;;11.40;88.10;;;;;;5079920;28;20486;-81
2021/10/16 10:13:28;;;;;;;0.70;0.50;;;11.40;88.00;;;;;;5084685;28;20048;-79
2021/10/16 10:15:55;;;;;;;1.98;0.40;;;11.50;87.90;;;;;;5082752;28;20036;-80
2021/10/16 10:21:08;;;;;;;2.30;0.65;;;11.50;87.70;;;;;;5104241;28;20046;-80
2021/10/16 10:23:34;;;;;;;1.58;0.50;;;11.50;87.80;;;;;;5095340;28;20086;-79
2021/10/16 10:26:22;;;;;;;0.60;0.43;;;11.50;87.70;;;;;;5106448;28;20396;-78
2021/10/16 10:29:01;;;;;;;1.48;0.70;;;11.40;87.70;;;;;;5078191;28;20036;-79
2021/10/16 10:31:53;;;;;;;1.15;0.45;;;11.40;87.60;;;;;;5077242;28;20047;-79
2021/10/16 10:34:20;;;;;;;;;;;11.60;87.60;;;;;;5060492;28;20044;-80
2021/10/16 10:36:48;;;;;;;0.63;0.50;;;11.60;87.60;;;;;;5060014;28;19928;-82
2021/10/16 10:39:36;;;;;;;1.25;0.38;;;11.60;87.50;;;;;;5059724;28;20036;-81
2021/10/16 10:42:39;;;;;;;0.80;0.40;;;11.70;87.50;;;;;;5075982;28;20044;-80
2021/10/16 10:45:35;;;;;;;0.68;0.50;;;11.80;87.30;;;;;;5057727;28;20068;-80
2021/10/16 10:48:08;;;;;;;0.98;0.50;;;11.80;87.20;;;;;;5078466;28;20040;-80
2021/10/16 10:50:55;;;;;;;1.45;0.57;;;11.90;87.10;;;;;;5077424;28;20055;-80
2021/10/16 10:53:23;;;;;;;0.68;0.40;;;12.00;87.00;;;;;;5057710;28;20097;-80
2021/10/16 10:55:51;;;;;;;0.73;0.52;;;12.00;86.90;;;;;;5076593;28;20055;-80
2021/10/16 10:58:17;;;;;;;1.40;0.70;;;12.00;86.80;;;;;;5095063;28;20047;-80
2021/10/16 11:00:43;;;;;;;1.27;0.60;;;12.10;86.80;;;;;;5094020;28;20082;-80
2021/10/16 11:03:43;;;;;;;1.50;0.60;;;12.10;86.70;;;;;;5076397;28;20504;-81
2021/10/16 11:06:18;;;;;;;0.93;0.57;;;12.20;86.60;;;;;;5076655;28;20050;-80
2021/10/16 11:08:45;;;;;;;1.35;0.65;;;12.20;86.50;;;;;;5058237;28;20040;-80
2021/10/16 11:11:44;;;;;;;2.15;0.60;;;12.20;86.50;;;;;;5093482;28;20109;-88
2021/10/16 11:15:14;;;;;;;2.40;0.90;;;12.30;86.50;;;;;;5037954;28;20161;-89
2021/10/16 11:17:43;;;;;;;1.73;0.70;;;12.20;86.20;;;;;;4977449;28;20054;-81
2021/10/16 11:20:13;;;;;;;1.38;0.52;;;12.40;86.10;;;;;;4991559;28;20046;-81
2021/10/16 11:22:44;;;;;;;2.00;0.50;;;12.40;86.00;;;;;;4998082;28;20034;-81
2021/10/16 11:25:15;;;;;;;;;;;12.50;86.00;;;;;;5000843;28;20046;-81
2021/10/16 11:27:40;;;;;;;1.85;0.50;;;12.60;85.90;;;;;;4995285;28;19910;-81
2021/10/16 11:30:24;;;;;;;2.13;0.60;;;12.60;86.30;;;;;;4980657;28;20045;-81
2021/10/16 11:32:49;;;;;;;4.38;0.80;;;12.60;85.30;;;;;;4999042;28;20046;-81
2021/10/16 11:35:15;;;;;;;1.20;0.60;;;12.70;85.40;;;;;;5013948;28;20061;-80
2021/10/16 11:37:46;;;;;;;1.13;0.73;;;12.70;85.30;;;;;;4998679;28;20551;-80
2021/10/16 11:40:18;;;;;;;0.52;0.30;;;12.80;85.10;;;;;;5019240;28;20583;-80
2021/10/16 11:42:52;;;;;;;2.03;0.60;;;12.80;85.10;;;;;;5036040;28;20048;-80
2021/10/16 11:45:21;;;;;;;1.42;0.50;;;12.90;85.00;;;;;;5018737;28;20033;-80
2021/10/16 11:47:50;;;;;;;1.50;0.60;;;13.10;85.10;;;;;;5019290;28;20136;-80
2021/10/16 11:50:19;;;;;;;1.85;0.60;;;13.00;84.90;;;;;;5033083;28;20047;-80
2021/10/16 11:52:48;;;;;;;2.38;0.65;;;13.00;84.70;;;;;;5033421;28;20100;-80
2021/10/16 11:55:19;;;;;;;1.25;0.60;;;13.10;84.60;;;;;;5076923;28;20524;-85
2021/10/16 11:57:44;;;;;;;;;;;13.10;84.40;;;;;;5079488;28;20116;-86
2021/10/16 12:00:21;;;;;;;2.38;0.60;;;13.10;84.40;;;;;;5079821;28;19951;-86
2021/10/16 12:03:00;;;;;;;1.27;0.60;;;13.20;84.20;;;;;;5040979;28;20071;-84
2021/10/16 12:05:49;;;;;;;2.00;0.95;;;13.10;84.10;;;;;;5023522;28;20061;-86
2021/10/16 12:08:17;;;;;;;2.08;0.70;;;13.20;84.10;;;;;;5006580;28;20191;-81
2021/10/16 12:10:48;;;;;;;1.63;0.70;;;13.20;84.10;;;;;;5035065;28;20041;-82
2021/10/16 12:13:15;;;;;;;1.50;0.75;;;13.20;83.70;;;;;;5048172;28;20495;-83
2021/10/16 12:15:45;;;;;;;2.47;0.70;;;13.20;83.90;;;;;;5029263;28;20478;-79
2021/10/16 12:18:26;;;;;;;1.15;0.40;;;13.30;84.00;;;;;;5047460;28;20184;-82
2021/10/16 12:20:58;;;;;;;0.73;0.40;;;13.30;84.00;;;;;;5040727;28;20049;-79
2021/10/16 12:23:43;;;;;;;0.75;0.40;;;13.40;83.90;;;;;;5032953;28;20132;-80
2021/10/16 12:26:20;;;;;;;2.30;0.93;;;13.40;83.70;;;;;;5031792;28;20049;-80
2021/10/16 12:28:47;;;;;;;1.83;0.50;;;13.40;83.60;;;;;;5015677;28;20038;-82
2021/10/16 12:31:13;;;;;;;1.58;0.50;;;13.30;83.50;;;;;;5014933;28;20168;-77
2021/10/16 12:34:07;;;;;;;3.05;0.60;;;13.40;83.60;;;;;;5050813;28;20490;-77
2021/10/16 12:36:41;;;;;;;0.70;0.40;;;13.40;83.50;;;;;;5067264;28;20071;-77
2021/10/16 12:39:09;;;;;;;0.95;0.50;;;13.40;83.50;;;;;;5059436;28;20311;-77
2021/10/16 12:41:39;;;;;;;0.75;0.40;;;13.40;83.50;;;;;;5075581;28;20161;-77
2021/10/16 12:44:15;;;;;;;0.73;0.50;;;13.40;83.50;;;;;;5058420;28;20506;-78
2021/10/16 12:46:41;;;;;;;1.67;0.65;;;13.40;83.40;;;;;;5075349;28;20133;-76
2021/10/16 12:49:07;;;;;;;2.15;0.60;;;13.40;83.40;;;;;;5075344;28;20118;-76
2021/10/16 12:51:43;;;;;;;0.85;0.32;;;13.40;83.50;;;;;;5058551;28;20137;-76
2021/10/16 12:54:09;;;;;;;0.65;0.40;;;13.40;83.50;;;;;;5075796;28;20130;-76
2021/10/16 12:56:35;;;;;;;0.55;0.40;;;13.40;84.00;;;;;;5058278;28;20438;-76
2021/10/16 12:59:02;;;;;;;2.60;0.68;;;13.30;83.30;;;;;;5058570;28;20135;-76
2021/10/16 13:01:29;;;;;;;2.00;0.60;;;13.40;83.40;;;;;;5041754;28;20032;-76
2021/10/16 13:03:56;;;;;;;1.05;0.70;;;13.40;83.30;;;;;;5058162;28;20563;-76
2021/10/16 13:06:22;;;;;;;0.88;0.32;;;13.40;83.20;;;;;;5057970;28;20516;-76